Time;durP1;ratioP1;P1;durP2;ratioP2;P2;SDS_P1;SDS_P2;PMS_P1;PMS_P2;Temp;Humidity;BMP_temperature;BMP_pressure;BME280_temperature;BME280_humidity;BME280_pressure;Samples;Min_cycle;Max_cycle;Signal;HPM_P1;HPM_P2
2022/11/21 00:01:10;;;;;;;27.67;18.35;;;4.00;99.90;;;;;;5043449;28;20100;-40
2022/11/21 00:03:37;;;;;;;30.13;19.30;;;4.00;99.90;;;;;;5042818;28;20090;-40
2022/11/21 00:06:02;;;;;;;27.17;17.92;;;4.00;99.90;;;;;;5043584;28;20025;-40
2022/11/21 00:08:29;;;;;;;26.90;18.17;;;4.00;99.90;;;;;;5042640;28;20024;-41
2022/11/21 00:11:16;;;;;;;25.83;17.55;;;4.00;99.90;;;;;;5042545;28;20036;-36
2022/11/21 00:13:42;;;;;;;27.30;17.70;;;4.00;99.90;;;;;;5042212;28;20028;-39
2022/11/21 00:16:10;;;;;;;26.08;18.00;;;4.00;99.90;;;;;;5042663;28;20090;-41
2022/11/21 00:18:36;;;;;;;26.42;17.90;;;4.00;99.90;;;;;;5042660;28;20037;-34
2022/11/21 00:21:15;;;;;;;29.48;18.55;;;4.00;99.90;;;;;;5042774;28;20055;-39
2022/11/21 00:23:42;;;;;;;28.23;17.88;;;4.00;99.90;;;;;;5042862;28;20079;-39
2022/11/21 00:26:10;;;;;;;28.23;18.38;;;4.00;99.90;;;;;;5043152;28;20029;-40
2022/11/21 00:28:35;;;;;;;27.05;17.52;;;4.00;99.90;;;;;;5042396;28;20102;-39
2022/11/21 00:31:01;;;;;;;26.83;17.85;;;4.00;99.90;;;;;;5042102;28;20552;-41
2022/11/21 00:33:27;;;;;;;27.27;17.88;;;4.00;99.90;;;;;;5043168;28;20032;-41
2022/11/21 00:35:56;;;;;;;26.45;17.25;;;4.00;99.90;;;;;;5042033;28;20064;-40
2022/11/21 00:38:23;;;;;;;24.77;17.33;;;4.00;99.90;;;;;;5041792;28;20029;-40
2022/11/21 00:40:49;;;;;;;25.83;17.08;;;4.00;99.90;;;;;;5042620;28;20059;-40
2022/11/21 00:43:14;;;;;;;24.95;17.38;;;4.00;99.90;;;;;;5042009;28;20104;-40
2022/11/21 00:45:40;;;;;;;24.40;16.50;;;4.10;99.90;;;;;;5042072;28;20032;-40
2022/11/21 00:48:06;;;;;;;25.90;17.98;;;4.10;99.90;;;;;;5042603;28;20035;-38
2022/11/21 00:50:31;;;;;;;27.73;17.83;;;4.10;99.90;;;;;;5041958;28;20017;-38
2022/11/21 00:52:57;;;;;;;26.92;18.13;;;4.10;99.90;;;;;;5041354;28;20078;-39
2022/11/21 00:55:24;;;;;;;25.73;17.20;;;4.10;99.90;;;;;;5042791;28;20087;-40
2022/11/21 00:57:50;;;;;;;27.42;18.30;;;4.00;99.90;;;;;;5042167;28;20623;-39
2022/11/21 01:00:16;;;;;;;27.85;18.50;;;4.10;99.90;;;;;;5041695;28;20039;-42
2022/11/21 01:02:42;;;;;;;27.05;18.42;;;4.00;99.90;;;;;;5042055;28;20025;-40
2022/11/21 01:05:08;;;;;;;28.80;18.60;;;4.10;99.90;;;;;;5041511;28;20085;-39
2022/11/21 01:07:34;;;;;;;26.77;17.58;;;4.00;99.90;;;;;;5041437;28;20476;-40
2022/11/21 01:09:59;;;;;;;24.38;16.42;;;4.00;99.90;;;;;;5042262;28;20025;-41
2022/11/21 01:12:25;;;;;;;24.63;15.90;;;4.00;99.90;;;;;;5042596;28;20025;-41
2022/11/21 01:14:50;;;;;;;23.40;16.45;;;4.00;99.90;;;;;;5041282;28;20032;-40
2022/11/21 01:17:16;;;;;;;27.42;17.65;;;4.00;99.90;;;;;;5042258;28;20029;-41
2022/11/21 01:19:41;;;;;;;26.67;18.23;;;4.00;99.90;;;;;;5043577;28;20033;-40
2022/11/21 01:22:07;;;;;;;25.90;17.23;;;4.00;99.90;;;;;;5046580;28;20165;-41
2022/11/21 01:24:33;;;;;;;27.23;18.08;;;4.00;99.90;;;;;;5045938;28;20033;-40
2022/11/21 01:26:58;;;;;;;27.45;19.23;;;4.00;99.90;;;;;;5045175;28;20061;-41
2022/11/21 01:29:24;;;;;;;29.45;19.65;;;4.00;99.90;;;;;;5046588;28;20046;-41
2022/11/21 01:31:49;;;;;;;30.35;19.52;;;4.00;99.90;;;;;;5045656;28;20119;-42
2022/11/21 01:34:15;;;;;;;31.15;20.38;;;3.90;99.90;;;;;;5046007;28;20050;-40
2022/11/21 01:36:41;;;;;;;33.50;20.67;;;3.90;99.90;;;;;;5045795;28;20039;-40
2022/11/21 01:39:07;;;;;;;29.13;18.65;;;3.90;99.90;;;;;;5045184;28;20494;-41
2022/11/21 01:41:41;;;;;;;30.60;19.98;;;3.80;99.90;;;;;;5045469;28;20036;-42
2022/11/21 01:44:16;;;;;;;29.92;18.70;;;3.80;99.90;;;;;;5045711;28;20067;-41
2022/11/21 01:46:44;;;;;;;31.15;19.73;;;3.80;99.90;;;;;;5045257;28;20053;-40
2022/11/21 01:49:15;;;;;;;29.63;18.73;;;3.80;99.90;;;;;;5045407;28;20403;-40
2022/11/21 01:51:49;;;;;;;29.27;18.65;;;3.90;99.90;;;;;;5045241;28;20104;-41
2022/11/21 01:54:22;;;;;;;28.70;18.13;;;3.90;99.90;;;;;;5046167;28;20029;-40
2022/11/21 01:56:53;;;;;;;28.27;17.98;;;3.80;99.90;;;;;;5045509;28;20029;-40
2022/11/21 01:59:28;;;;;;;30.98;18.77;;;3.80;99.90;;;;;;5045838;28;20048;-40
2022/11/21 02:01:55;;;;;;;29.38;19.27;;;3.90;99.90;;;;;;5045170;28;20480;-42
2022/11/21 02:04:23;;;;;;;28.92;18.30;;;3.80;99.90;;;;;;5045930;28;20025;-41
2022/11/21 02:06:49;;;;;;;28.67;18.90;;;3.80;99.90;;;;;;5045218;28;20021;-40
2022/11/21 02:09:16;;;;;;;26.85;17.63;;;3.80;99.90;;;;;;5044881;28;20032;-41
2022/11/21 02:11:49;;;;;;;26.85;16.88;;;3.90;99.90;;;;;;5044882;28;20559;-41
2022/11/21 02:14:15;;;;;;;28.67;18.05;;;3.80;99.90;;;;;;5044353;28;20037;-41
2022/11/21 02:16:41;;;;;;;26.67;17.45;;;3.80;99.90;;;;;;5044293;28;20064;-41
2022/11/21 02:19:14;;;;;;;27.98;17.45;;;3.80;99.90;;;;;;5044820;28;20041;-40
2022/11/21 02:21:45;;;;;;;27.55;17.35;;;3.80;99.90;;;;;;5045447;28;20030;-41
2022/11/21 02:24:33;;;;;;;26.38;16.88;;;3.90;99.90;;;;;;5044560;28;20047;-40
2022/11/21 02:26:59;;;;;;;24.85;16.52;;;3.90;99.90;;;;;;5044745;28;20064;-41
2022/11/21 02:29:25;;;;;;;27.10;17.65;;;3.90;99.90;;;;;;5045043;28;20103;-40
2022/11/21 02:31:51;;;;;;;25.48;16.40;;;3.90;99.90;;;;;;5044136;28;20025;-41
2022/11/21 02:34:17;;;;;;;24.30;15.50;;;3.90;99.90;;;;;;5044241;28;20755;-41
2022/11/21 02:36:45;;;;;;;25.10;16.25;;;3.90;99.90;;;;;;5044823;28;20037;-40
2022/11/21 02:39:25;;;;;;;23.58;15.75;;;4.00;99.90;;;;;;5043647;28;20079;-41
2022/11/21 02:42:04;;;;;;;28.70;18.00;;;4.00;99.90;;;;;;5043938;28;20028;-41
2022/11/21 02:45:06;;;;;;;27.77;17.85;;;4.00;99.90;;;;;;5044376;28;20029;-40
2022/11/21 02:47:32;;;;;;;26.27;17.65;;;4.00;99.90;;;;;;5041843;28;20048;-40
2022/11/21 02:50:33;;;;;;;28.38;17.90;;;4.00;99.90;;;;;;5044482;28;20033;-39
2022/11/21 02:52:58;;;;;;;26.95;17.45;;;4.00;99.90;;;;;;5043496;28;20041;-40
2022/11/21 02:55:25;;;;;;;27.10;17.63;;;3.90;99.90;;;;;;5045167;28;20029;-41
2022/11/21 02:57:51;;;;;;;27.73;18.42;;;3.90;99.90;;;;;;5044900;28;20043;-39
2022/11/21 03:00:17;;;;;;;27.40;18.55;;;3.90;99.90;;;;;;5042689;28;20032;-40
2022/11/21 03:02:43;;;;;;;28.42;19.20;;;3.90;99.90;;;;;;5044466;28;20067;-38
2022/11/21 03:05:10;;;;;;;28.02;18.63;;;3.90;99.90;;;;;;5043651;28;20132;-40
2022/11/21 03:07:36;;;;;;;26.63;17.88;;;3.80;99.90;;;;;;5044408;28;20083;-40
2022/11/21 03:10:02;;;;;;;29.45;19.10;;;3.80;99.90;;;;;;5044164;28;20036;-40
2022/11/21 03:12:27;;;;;;;25.95;18.38;;;3.80;99.90;;;;;;5044150;28;20555;-40
2022/11/21 03:14:53;;;;;;;30.38;19.25;;;3.80;99.90;;;;;;5043621;28;20136;-38
2022/11/21 03:17:22;;;;;;;26.25;17.48;;;3.80;99.90;;;;;;5043636;28;20033;-40
2022/11/21 03:19:47;;;;;;;24.58;16.50;;;3.80;99.90;;;;;;5043214;28;20075;-39
2022/11/21 03:22:14;;;;;;;24.55;15.82;;;3.80;99.90;;;;;;5043942;28;20560;-41
2022/11/21 03:24:40;;;;;;;24.38;16.27;;;3.70;99.90;;;;;;5044091;28;20036;-39
2022/11/21 03:27:06;;;;;;;24.92;17.02;;;3.70;99.90;;;;;;5043560;28;20033;-34
2022/11/21 03:29:32;;;;;;;25.15;16.85;;;3.70;99.90;;;;;;5044042;28;20032;-41
2022/11/21 03:31:58;;;;;;;29.23;17.95;;;3.80;99.90;;;;;;5043177;28;20765;-40
2022/11/21 03:34:23;;;;;;;27.35;17.63;;;3.80;99.90;;;;;;5043231;28;20036;-41
2022/11/21 03:36:49;;;;;;;28.92;18.40;;;3.80;99.90;;;;;;5043865;28;20026;-41
2022/11/21 03:39:15;;;;;;;28.35;17.80;;;3.80;99.90;;;;;;5043309;28;20824;-41
2022/11/21 03:41:41;;;;;;;28.45;18.45;;;3.80;99.90;;;;;;5042208;28;20052;-41
2022/11/21 03:44:09;;;;;;;26.73;17.00;;;3.80;99.90;;;;;;5043965;28;20447;-40
2022/11/21 03:46:36;;;;;;;26.35;16.85;;;3.90;99.90;;;;;;5043595;28;20028;-40
2022/11/21 03:49:03;;;;;;;27.50;17.23;;;3.90;99.90;;;;;;5043456;28;20033;-41
2022/11/21 03:51:29;;;;;;;26.90;17.08;;;3.90;99.90;;;;;;5043619;28;20025;-38
2022/11/21 03:53:57;;;;;;;30.85;17.85;;;3.90;99.90;;;;;;5043747;28;20057;-41
2022/11/21 03:56:26;;;;;;;29.08;18.02;;;4.00;99.90;;;;;;5043361;28;20017;-37
2022/11/21 03:58:52;;;;;;;28.92;16.92;;;4.00;99.90;;;;;;5043380;28;20505;-40
2022/11/21 04:01:18;;;;;;;30.58;18.35;;;4.00;99.90;;;;;;5043150;28;20476;-40
2022/11/21 04:03:44;;;;;;;26.33;17.02;;;4.00;99.90;;;;;;5042962;28;20028;-39
2022/11/21 04:06:11;;;;;;;29.23;18.35;;;4.00;99.90;;;;;;5042622;28;20036;-37
2022/11/21 04:08:37;;;;;;;29.88;17.60;;;4.00;99.90;;;;;;5042929;28;20227;-40
2022/11/21 04:11:03;;;;;;;29.80;17.55;;;4.00;99.90;;;;;;5042894;28;20025;-38
2022/11/21 04:13:28;;;;;;;31.95;19.13;;;4.00;99.90;;;;;;5043029;28;20113;-41
2022/11/21 04:15:54;;;;;;;29.98;17.20;;;4.00;99.90;;;;;;5042769;28;20457;-40
2022/11/21 04:18:20;;;;;;;28.52;17.67;;;4.00;99.90;;;;;;5042025;28;20041;-38
2022/11/21 04:20:46;;;;;;;30.67;17.25;;;4.00;99.90;;;;;;5041201;28;20071;-42
2022/11/21 04:23:12;;;;;;;28.27;16.42;;;4.00;99.90;;;;;;5043506;28;20033;-40
2022/11/21 04:25:38;;;;;;;29.35;17.02;;;4.00;99.90;;;;;;5044324;28;20144;-40
2022/11/21 04:28:04;;;;;;;26.63;17.08;;;4.00;99.90;;;;;;5043234;28;20518;-40
2022/11/21 04:30:34;;;;;;;31.52;18.40;;;4.00;99.90;;;;;;5042994;28;20029;-40
2022/11/21 04:33:00;;;;;;;28.98;17.13;;;4.00;99.90;;;;;;5042542;28;20029;-41
2022/11/21 04:35:26;;;;;;;29.35;17.17;;;4.00;99.90;;;;;;5042630;28;20519;-41
2022/11/21 04:37:52;;;;;;;30.70;17.98;;;4.00;99.90;;;;;;5041915;28;20021;-39
2022/11/21 04:40:18;;;;;;;30.13;19.30;;;4.00;99.90;;;;;;5038143;28;20119;-40
2022/11/21 04:42:45;;;;;;;30.33;18.45;;;4.00;99.90;;;;;;5034165;28;20238;-41
2022/11/21 04:45:12;;;;;;;29.63;18.17;;;4.00;99.90;;;;;;5042517;28;20028;-40
2022/11/21 04:47:42;;;;;;;29.75;18.20;;;4.00;99.90;;;;;;5052175;28;20017;-38
2022/11/21 04:50:09;;;;;;;32.95;18.67;;;4.00;99.90;;;;;;5046319;28;20036;-40
2022/11/21 04:52:35;;;;;;;31.17;18.80;;;4.00;99.90;;;;;;5053559;28;20143;-41
2022/11/21 04:55:01;;;;;;;30.58;18.45;;;4.00;99.90;;;;;;5042530;28;20044;-41
2022/11/21 04:57:28;;;;;;;34.60;18.98;;;4.00;99.90;;;;;;5042285;28;20025;-41
2022/11/21 04:59:54;;;;;;;32.70;18.55;;;4.00;99.90;;;;;;5042012;28;20029;-39
2022/11/21 05:02:20;;;;;;;31.88;19.15;;;4.00;99.90;;;;;;5042590;28;20106;-39
2022/11/21 05:04:45;;;;;;;32.10;19.52;;;4.00;99.90;;;;;;5042474;28;20017;-38
2022/11/21 05:07:11;;;;;;;32.50;18.60;;;4.00;99.90;;;;;;5042375;28;20029;-39
2022/11/21 05:09:36;;;;;;;28.30;17.42;;;4.00;99.90;;;;;;5042103;28;20407;-40
2022/11/21 05:14:46;;;;;;;29.48;17.23;;;3.90;99.90;;;;;;5041463;28;20190;-39
2022/11/21 05:17:12;;;;;;;30.58;18.05;;;3.90;99.90;;;;;;5042892;28;20021;-40
2022/11/21 05:19:37;;;;;;;31.95;18.77;;;3.90;99.90;;;;;;5041543;28;20045;-40
2022/11/21 05:22:03;;;;;;;33.25;18.23;;;3.90;99.90;;;;;;5042854;28;20017;-40
2022/11/21 05:24:28;;;;;;;26.17;16.08;;;3.90;99.90;;;;;;5042616;28;20032;-39
2022/11/21 05:26:54;;;;;;;28.65;17.15;;;3.90;99.90;;;;;;5041696;28;20025;-38
2022/11/21 05:29:20;;;;;;;26.05;16.52;;;3.90;99.90;;;;;;5041572;28;20040;-35
2022/11/21 05:31:46;;;;;;;32.38;19.33;;;3.90;99.90;;;;;;5041479;28;20021;-37
2022/11/21 05:34:12;;;;;;;30.45;17.50;;;3.90;99.90;;;;;;5041213;28;20021;-40
2022/11/21 05:36:37;;;;;;;32.33;17.88;;;3.90;99.90;;;;;;5041348;28;20722;-41
2022/11/21 05:39:03;;;;;;;31.38;17.70;;;3.90;99.90;;;;;;5041578;28;20080;-40
2022/11/21 05:41:28;;;;;;;28.05;16.55;;;4.00;99.90;;;;;;5042313;28;20071;-41
2022/11/21 05:43:54;;;;;;;31.05;19.02;;;3.90;99.90;;;;;;5041269;28;20032;-40
2022/11/21 05:46:22;;;;;;;32.30;18.45;;;3.90;99.90;;;;;;5041982;28;20045;-39
2022/11/21 05:48:48;;;;;;;33.35;18.33;;;3.90;99.90;;;;;;5041714;28;20090;-41
2022/11/21 05:51:15;;;;;;;30.52;16.85;;;4.00;99.90;;;;;;5041799;28;20124;-41
2022/11/21 05:53:44;;;;;;;28.35;16.40;;;4.00;99.90;;;;;;5042327;28;20044;-40
2022/11/21 05:56:15;;;;;;;30.55;17.70;;;4.00;99.90;;;;;;5040120;28;20116;-40
2022/11/21 05:58:41;;;;;;;33.67;18.87;;;4.00;99.90;;;;;;5041955;28;20036;-40
2022/11/21 06:01:11;;;;;;;34.17;17.50;;;4.00;99.90;;;;;;5041516;28;20036;-40
2022/11/21 06:03:38;;;;;;;34.17;19.00;;;4.00;99.90;;;;;;5042305;28;20025;-41
2022/11/21 06:06:16;;;;;;;37.45;18.13;;;4.00;99.90;;;;;;5043359;28;20025;-40
2022/11/21 06:08:44;;;;;;;34.38;18.85;;;4.00;99.90;;;;;;5044516;28;20028;-40
2022/11/21 06:11:12;;;;;;;36.08;19.95;;;4.00;99.90;;;;;;5045323;28;20458;-40
2022/11/21 06:13:38;;;;;;;40.63;19.80;;;4.00;99.90;;;;;;5025589;28;20025;-41
2022/11/21 06:16:10;;;;;;;37.42;20.60;;;4.00;99.90;;;;;;5039113;28;20762;-41
2022/11/21 06:18:38;;;;;;;39.33;19.38;;;4.00;99.90;;;;;;5045705;28;20067;-36
2022/11/21 06:21:10;;;;;;;39.30;20.23;;;4.00;99.90;;;;;;5044964;28;20514;-39
2022/11/21 06:23:36;;;;;;;33.78;18.10;;;4.00;99.90;;;;;;5044419;28;20472;-38
2022/11/21 06:26:04;;;;;;;43.58;19.15;;;4.00;99.90;;;;;;5044952;28;20028;-38
2022/11/21 06:28:32;;;;;;;36.67;19.23;;;4.10;99.90;;;;;;5045140;28;20476;-40
2022/11/21 06:31:05;;;;;;;39.47;18.23;;;4.10;99.90;;;;;;5044394;28;20407;-39
2022/11/21 06:33:32;;;;;;;32.05;17.35;;;4.10;99.90;;;;;;5045087;28;20033;-40
2022/11/21 06:36:01;;;;;;;32.47;17.05;;;4.10;99.90;;;;;;5044429;28;20790;-40
2022/11/21 06:38:30;;;;;;;30.73;16.55;;;4.10;99.90;;;;;;5044720;28;20224;-39
2022/11/21 06:40:55;;;;;;;28.95;16.00;;;4.10;99.90;;;;;;5044329;28;20056;-37
2022/11/21 06:43:21;;;;;;;35.65;17.63;;;4.10;99.90;;;;;;5044565;28;20140;-40
2022/11/21 06:45:46;;;;;;;27.20;14.82;;;4.10;99.90;;;;;;5044222;28;20116;-38
2022/11/21 06:48:12;;;;;;;29.98;16.73;;;4.10;99.90;;;;;;5044638;28;20236;-41
2022/11/21 06:50:38;;;;;;;28.35;16.17;;;4.10;99.90;;;;;;5044944;28;20476;-40
2022/11/21 06:53:03;;;;;;;29.58;16.15;;;4.10;99.90;;;;;;5044448;28;20324;-38
2022/11/21 06:55:30;;;;;;;26.13;14.82;;;4.10;99.90;;;;;;5042708;28;20031;-38
2022/11/21 06:57:57;;;;;;;28.77;16.00;;;4.10;99.90;;;;;;5041847;28;20025;-38
2022/11/21 07:00:24;;;;;;;27.98;16.33;;;4.10;99.90;;;;;;5042600;28;20109;-41
2022/11/21 07:02:49;;;;;;;28.50;16.13;;;4.10;99.90;;;;;;5043802;28;20013;-41
2022/11/21 07:05:15;;;;;;;28.75;15.85;;;4.10;99.90;;;;;;5042752;28;20025;-41
2022/11/21 07:07:40;;;;;;;24.38;14.23;;;4.10;99.90;;;;;;5043335;28;20013;-41
2022/11/21 07:10:06;;;;;;;25.05;14.48;;;4.10;99.90;;;;;;5042984;28;20029;-40
2022/11/21 07:15:18;;;;;;;31.90;17.50;;;4.20;99.90;;;;;;5043360;28;20510;-40
2022/11/21 07:17:43;;;;;;;32.60;18.05;;;4.10;99.90;;;;;;5041915;28;20021;-36
2022/11/21 07:20:09;;;;;;;30.48;16.65;;;4.20;99.90;;;;;;5042932;28;20033;-38
2022/11/21 07:22:35;;;;;;;33.28;17.33;;;4.20;99.90;;;;;;5042474;28;20025;-37
2022/11/21 07:25:01;;;;;;;35.03;18.50;;;4.20;99.90;;;;;;5043259;28;20044;-43
2022/11/21 07:27:26;;;;;;;31.10;17.83;;;4.20;99.90;;;;;;5043070;28;20027;-40
2022/11/21 07:29:52;;;;;;;33.58;18.15;;;4.20;99.90;;;;;;5042280;28;20021;-41
2022/11/21 07:32:17;;;;;;;31.65;17.13;;;4.20;99.90;;;;;;5043517;28;20581;-39
2022/11/21 07:34:43;;;;;;;31.90;17.80;;;4.20;99.90;;;;;;5041531;28;20033;-39
2022/11/21 07:37:08;;;;;;;29.70;16.77;;;4.20;99.90;;;;;;5043104;28;20120;-41
2022/11/21 07:39:34;;;;;;;26.33;15.77;;;4.20;99.90;;;;;;5043199;28;20033;-40
2022/11/21 07:42:00;;;;;;;29.77;15.93;;;4.30;99.90;;;;;;5043834;28;20059;-40
2022/11/21 07:44:26;;;;;;;28.60;17.25;;;4.30;99.90;;;;;;5043712;28;20741;-41
2022/11/21 07:46:55;;;;;;;27.67;16.38;;;4.30;99.90;;;;;;5042971;28;20112;-40
2022/11/21 07:49:21;;;;;;;27.00;16.77;;;4.30;99.90;;;;;;5045195;28;20028;-41
2022/11/21 07:51:47;;;;;;;27.55;16.92;;;4.30;99.90;;;;;;5042707;28;20021;-41
2022/11/21 07:54:12;;;;;;;27.50;15.98;;;4.30;99.90;;;;;;5041514;28;20036;-40
2022/11/21 07:56:38;;;;;;;24.75;15.40;;;4.30;99.90;;;;;;5042424;28;20029;-39
2022/11/21 07:59:03;;;;;;;24.98;15.30;;;4.40;99.90;;;;;;5042414;28;20041;-40
2022/11/21 08:01:31;;;;;;;23.50;14.88;;;4.40;99.90;;;;;;5042598;28;20043;-40
2022/11/21 08:03:57;;;;;;;24.48;14.98;;;4.40;99.90;;;;;;5042238;28;20021;-40
2022/11/21 08:06:22;;;;;;;24.67;15.60;;;4.40;99.90;;;;;;5043527;28;20029;-40
2022/11/21 08:08:52;;;;;;;24.45;15.88;;;4.40;99.90;;;;;;4996665;28;20106;-41
2022/11/21 08:11:18;;;;;;;22.15;14.68;;;4.40;99.90;;;;;;5035596;28;20123;-39
2022/11/21 08:13:44;;;;;;;24.80;14.95;;;4.50;99.90;;;;;;5042593;28;20050;-41
2022/11/21 08:16:12;;;;;;;24.27;15.20;;;4.50;99.90;;;;;;5043844;28;20036;-41
2022/11/21 08:18:38;;;;;;;24.90;14.98;;;4.50;99.90;;;;;;5043401;28;20032;-41
2022/11/21 08:21:04;;;;;;;21.40;14.32;;;4.50;99.90;;;;;;5042907;28;20744;-41
2022/11/21 08:23:30;;;;;;;22.75;14.38;;;4.50;99.90;;;;;;5042834;28;20029;-40
2022/11/21 08:25:56;;;;;;;23.60;14.07;;;4.50;99.90;;;;;;5042867;28;20037;-40
2022/11/21 08:28:24;;;;;;;23.08;14.65;;;4.60;99.90;;;;;;5043249;28;20090;-40
2022/11/21 08:30:52;;;;;;;24.10;14.70;;;4.60;99.90;;;;;;5042483;28;20029;-40
2022/11/21 08:33:18;;;;;;;23.00;14.43;;;4.50;99.90;;;;;;5023330;28;20022;-43
2022/11/21 08:35:43;;;;;;;24.98;15.48;;;4.60;99.90;;;;;;5035975;28;20483;-41
2022/11/21 08:38:09;;;;;;;28.88;15.32;;;4.60;99.90;;;;;;5042466;28;20041;-40
2022/11/21 08:40:35;;;;;;;23.17;13.95;;;4.60;99.90;;;;;;5042293;28;20032;-41
2022/11/21 08:43:03;;;;;;;23.77;15.23;;;4.60;99.90;;;;;;5041842;28;20021;-41
2022/11/21 08:45:29;;;;;;;24.90;14.57;;;4.60;99.90;;;;;;5042627;28;20089;-41
2022/11/21 08:47:55;;;;;;;30.67;15.50;;;4.60;99.90;;;;;;5042317;28;20725;-41
2022/11/21 08:50:21;;;;;;;27.38;15.88;;;4.60;99.90;;;;;;5042071;28;20028;-40
2022/11/21 08:52:47;;;;;;;28.98;16.60;;;4.70;99.90;;;;;;5042470;28;20028;-39
2022/11/21 08:55:13;;;;;;;27.27;16.13;;;4.70;99.90;;;;;;5042390;28;20381;-40
2022/11/21 08:57:42;;;;;;;30.75;17.45;;;4.70;99.90;;;;;;5042278;28;20045;-40
2022/11/21 09:00:11;;;;;;;29.13;17.10;;;4.70;99.90;;;;;;5041656;28;20040;-40
2022/11/21 09:02:37;;;;;;;36.55;18.60;;;4.70;99.90;;;;;;5042340;28;20041;-40
2022/11/21 09:05:02;;;;;;;36.30;19.85;;;4.70;99.90;;;;;;5042210;28;20060;-39
2022/11/21 09:07:28;;;;;;;36.53;20.73;;;4.80;99.90;;;;;;5041886;28;20036;-40
2022/11/21 09:09:53;;;;;;;37.33;21.17;;;4.80;99.90;;;;;;5042127;28;20036;-42
2022/11/21 09:12:19;;;;;;;41.35;20.40;;;4.70;99.90;;;;;;5041540;28;20032;-42
2022/11/21 09:20:13;;;;;;;29.50;16.73;;;4.80;99.90;;;;;;5041391;28;20238;-39
2022/11/21 09:22:41;;;;;;;30.25;15.95;;;4.80;99.90;;;;;;5041163;28;20024;-40
2022/11/21 09:25:07;;;;;;;34.67;17.17;;;4.80;99.90;;;;;;5041636;28;20064;-39
2022/11/21 09:27:32;;;;;;;26.73;16.60;;;4.90;99.90;;;;;;5042149;28;20116;-40
2022/11/21 09:29:58;;;;;;;31.88;17.58;;;4.90;99.90;;;;;;5041518;28;20021;-41
2022/11/21 09:32:23;;;;;;;32.15;17.73;;;4.90;99.90;;;;;;5041316;28;20451;-41
2022/11/21 09:34:49;;;;;;;32.42;18.20;;;4.90;99.90;;;;;;5041259;28;20041;-40
2022/11/21 09:37:17;;;;;;;36.72;18.88;;;4.90;99.90;;;;;;5039591;28;20028;-41
2022/11/21 09:39:43;;;;;;;46.42;21.83;;;4.90;99.90;;;;;;5040611;28;20044;-40
2022/11/21 09:42:17;;;;;;;44.50;20.55;;;4.90;99.90;;;;;;5048204;28;20668;-41
2022/11/21 09:45:03;;;;;;;49.25;21.83;;;5.00;99.90;;;;;;5045536;28;20365;-40
2022/11/21 09:47:33;;;;;;;42.53;20.23;;;5.00;99.90;;;;;;5045317;28;20025;-39
2022/11/21 09:50:01;;;;;;;40.45;19.75;;;5.10;99.90;;;;;;5044996;28;20132;-42
2022/11/21 09:53:00;;;;;;;36.47;18.58;;;5.00;99.90;;;;;;5045867;28;20025;-40
2022/11/21 09:55:47;;;;;;;38.90;18.08;;;5.00;99.90;;;;;;5040392;28;20541;-37
2022/11/21 09:58:38;;;;;;;47.78;19.55;;;5.10;99.90;;;;;;5044773;28;20455;-37
2022/11/21 10:01:04;;;;;;;37.30;18.48;;;5.10;99.90;;;;;;5044934;28;20033;-39
2022/11/21 10:03:37;;;;;;;36.78;18.15;;;5.00;99.90;;;;;;5044881;28;20032;-40
2022/11/21 10:06:13;;;;;;;34.88;17.75;;;5.10;99.90;;;;;;5045017;28;20075;-40
2022/11/21 10:08:54;;;;;;;34.92;18.15;;;5.10;99.90;;;;;;5044359;28;20758;-40
2022/11/21 10:11:29;;;;;;;35.88;18.40;;;5.10;99.90;;;;;;5044943;28;20527;-40
2022/11/21 10:14:06;;;;;;;35.10;19.23;;;5.20;99.90;;;;;;5044635;28;20025;-41
2022/11/21 10:16:40;;;;;;;33.80;17.40;;;5.20;99.90;;;;;;5045125;28;20025;-39
2022/11/21 10:19:16;;;;;;;32.20;16.70;;;5.30;99.90;;;;;;5045013;28;20123;-41
2022/11/21 10:22:16;;;;;;;30.27;16.55;;;5.40;99.90;;;;;;5044342;28;20036;-40
2022/11/21 10:25:09;;;;;;;29.58;16.40;;;5.40;99.90;;;;;;5043013;28;20124;-41
2022/11/21 10:27:54;;;;;;;;;;;5.50;99.90;;;;;;5045283;28;20033;-39
2022/11/21 10:30:20;;;;;;;26.77;14.15;;;5.50;99.90;;;;;;5043226;28;19951;-41
2022/11/21 10:32:52;;;;;;;34.72;15.10;;;5.60;99.90;;;;;;5045001;28;20029;-41
2022/11/21 10:35:22;;;;;;;27.90;14.52;;;5.60;99.90;;;;;;5043513;28;20057;-40
2022/11/21 10:38:21;;;;;;;25.27;14.73;;;5.60;99.90;;;;;;5044753;28;20029;-40
2022/11/21 10:40:52;;;;;;;28.80;15.40;;;5.60;99.90;;;;;;5039459;28;20068;-40
2022/11/21 10:46:17;;;;;;;28.13;15.43;;;5.70;99.90;;;;;;5043156;28;20048;-40
2022/11/21 10:48:58;;;;;;;28.55;16.67;;;5.80;99.90;;;;;;5043920;28;20045;-40
2022/11/21 10:51:40;;;;;;;29.65;16.95;;;5.80;99.90;;;;;;5043944;28;20021;-41
2022/11/21 10:57:13;;;;;;;35.47;16.65;;;5.90;99.90;;;;;;5032846;28;20047;-38
2022/11/21 10:59:39;;;;;;;30.58;17.00;;;5.90;99.90;;;;;;5043428;28;20040;-40
2022/11/21 11:02:14;;;;;;;34.28;17.25;;;6.00;99.90;;;;;;5044305;28;20025;-40
2022/11/21 11:04:39;;;;;;;29.15;16.45;;;6.00;99.90;;;;;;5042870;28;20104;-40
2022/11/21 11:07:25;;;;;;;31.38;17.27;;;6.10;99.90;;;;;;5032294;28;20555;-41
2022/11/21 11:09:51;;;;;;;30.10;17.13;;;6.20;99.90;;;;;;5043137;28;20467;-39
2022/11/21 11:13:32;;;;;;;29.17;17.33;;;6.20;99.90;;;;;;5043403;28;20566;-42
2022/11/21 11:15:20;;;;;;;32.22;17.15;;;6.20;99.90;;;;;;5042145;28;20040;-39
2022/11/21 11:17:55;;;;;;;35.42;17.88;;;6.30;99.90;;;;;;5043709;28;20023;-42
2022/11/21 11:20:43;;;;;;;36.85;18.75;;;6.30;99.90;;;;;;5043845;28;20110;-41
2022/11/21 11:23:25;;;;;;;36.28;19.70;;;6.30;99.90;;;;;;5044047;28;20436;-41
2022/11/21 11:25:58;;;;;;;36.17;19.52;;;6.30;99.90;;;;;;5042366;28;20366;-40
2022/11/21 11:28:32;;;;;;;37.70;19.55;;;6.40;99.90;;;;;;5043885;28;20025;-40
2022/11/21 11:30:57;;;;;;;34.58;19.25;;;6.40;99.90;;;;;;5043256;28;20032;-40
2022/11/21 11:33:42;;;;;;;38.75;21.02;;;6.50;99.90;;;;;;5043185;28;20025;-39
2022/11/21 11:36:13;;;;;;;35.80;18.80;;;6.50;99.90;;;;;;5042613;28;20552;-40
2022/11/21 11:39:05;;;;;;;34.78;19.25;;;6.50;99.90;;;;;;5043386;28;20087;-41
2022/11/21 11:48:00;;;;;;;32.80;19.17;;;6.80;99.90;;;;;;5043284;28;20496;-41
2022/11/21 11:50:52;;;;;;;32.80;18.60;;;6.80;99.90;;;;;;5042872;28;21011;-40
2022/11/21 11:53:29;;;;;;;28.92;17.27;;;6.80;99.90;;;;;;5042961;28;20048;-41
2022/11/21 11:56:07;;;;;;;28.85;17.98;;;6.90;99.90;;;;;;5043442;28;20017;-42
2022/11/21 11:58:39;;;;;;;27.38;16.88;;;6.90;99.90;;;;;;5040762;28;20020;-42
2022/11/21 12:01:31;;;;;;;30.83;16.38;;;7.00;99.90;;;;;;5042900;28;20722;-39
2022/11/21 12:04:09;;;;;;;27.38;16.88;;;7.10;99.90;;;;;;5042480;28;20037;-39
2022/11/21 12:06:54;;;;;;;29.13;16.70;;;7.10;99.90;;;;;;5042837;28;20025;-40
2022/11/21 12:09:29;;;;;;;26.98;16.60;;;7.20;99.90;;;;;;5033536;28;20116;-41
2022/11/21 12:12:32;;;;;;;27.20;16.00;;;7.20;99.90;;;;;;5046697;28;20056;-40
2022/11/21 12:17:55;;;;;;;23.23;15.35;;;7.40;99.90;;;;;;5042242;28;20101;-41
2022/11/21 12:20:34;;;;;;;26.35;15.85;;;7.50;99.90;;;;;;5042770;28;20135;-39
2022/11/21 12:22:59;;;;;;;24.65;16.65;;;7.60;99.90;;;;;;5041857;28;20707;-41
2022/11/21 12:25:35;;;;;;;25.58;16.38;;;7.60;99.90;;;;;;5042929;28;20032;-40
2022/11/21 12:28:03;;;;;;;27.55;17.02;;;7.70;99.90;;;;;;5042005;28;20096;-39
2022/11/21 12:30:58;;;;;;;26.40;17.42;;;7.80;99.90;;;;;;5042384;28;20041;-38
2022/11/21 12:33:24;;;;;;;27.08;16.85;;;7.80;99.90;;;;;;5042388;28;20614;-40
2022/11/21 12:35:55;;;;;;;24.65;16.30;;;7.80;99.90;;;;;;5041502;28;20048;-39
2022/11/21 12:38:42;;;;;;;22.95;15.77;;;7.90;99.90;;;;;;5042736;28;20036;-40
2022/11/21 12:44:42;;;;;;;21.00;14.00;;;8.00;99.90;;;;;;5041314;28;20044;-39
2022/11/21 12:54:29;;;;;;;22.42;14.52;;;8.00;99.90;;;;;;5022497;28;20036;-39
2022/11/21 12:57:24;;;;;;;15.45;11.32;;;8.10;99.90;;;;;;5018773;28;20172;-40
2022/11/21 12:59:57;;;;;;;15.20;10.95;;;8.10;99.90;;;;;;5041568;28;20049;-38
2022/11/21 13:02:53;;;;;;;11.98;10.00;;;8.10;99.90;;;;;;5042362;28;20370;-37
2022/11/21 13:05:35;;;;;;;14.75;10.98;;;8.10;99.90;;;;;;5041413;28;20029;-37
2022/11/21 13:08:16;;;;;;;12.18;10.38;;;8.10;99.90;;;;;;5042543;28;20116;-40
2022/11/21 13:10:51;;;;;;;13.60;10.15;;;8.00;99.90;;;;;;5041252;28;20021;-40
2022/11/21 13:13:42;;;;;;;16.40;10.73;;;8.10;99.90;;;;;;5042517;28;20090;-39
2022/11/21 13:16:14;;;;;;;14.43;10.77;;;8.00;99.90;;;;;;5041074;28;20033;-38
2022/11/21 13:18:47;;;;;;;13.30;9.90;;;8.00;99.90;;;;;;5042047;28;20139;-39
2022/11/21 13:21:41;;;;;;;14.68;10.90;;;8.00;99.90;;;;;;5038705;28;20025;-39
2022/11/21 13:24:08;;;;;;;14.55;10.90;;;8.00;99.90;;;;;;5041262;28;20135;-40
2022/11/21 13:26:36;;;;;;;14.27;11.00;;;7.90;99.90;;;;;;5041575;28;20626;-38
2022/11/21 13:29:12;;;;;;;12.70;9.95;;;8.00;99.90;;;;;;5041590;28;20045;-40